Aviation Digital Data Service (ADDS)

Output produced by METARs form (1411 UTC 24 April 2014)
found at http://aviationweather.gov/adds/metars/
 
KPQI 241340Z 2414/2512 34014G22KT 2SM -SN BR SCT009 OVC015 
     FM241430 35015G25KT 3SM -RASN BR SCT007 OVC015 
     FM241500 36015G25KT 5SM -RA BR OVC015 
     FM241800 36014G22KT 6SM -SHRA OVC020 AMD LTD TO CLD VIS AND WIND